createdAt,value
2023-04-02T06:59:51.371Z,98218.25
2023-04-02T07:04:46.188Z,98214.50
2023-04-02T07:07:13.710Z,98224.97
2023-04-02T07:09:42.515Z,98229.44
2023-04-02T07:12:14.225Z,98232.16
2023-04-02T07:14:41.731Z,98232.03
2023-04-02T07:17:18.069Z,98231.63
2023-04-02T07:19:49.664Z,98227.66
2023-04-02T07:22:19.447Z,98233.84
2023-04-02T07:24:47.224Z,98231.25
2023-04-02T07:27:15.583Z,98239.13
2023-04-02T07:29:43.097Z,98246.22
2023-04-02T07:32:14.173Z,98244.06
2023-04-02T07:34:42.472Z,98245.03
2023-04-02T07:37:14.876Z,98239.81
2023-04-02T07:39:42.424Z,98250.81
2023-04-02T07:42:10.281Z,98255.75
2023-04-02T07:44:37.869Z,98259.09
2023-04-02T07:47:05.632Z,98252.47
2023-04-02T07:49:33.127Z,98255.97
2023-04-02T07:52:00.926Z,98259.53
2023-04-02T07:54:28.538Z,98259.88
2023-04-02T07:56:56.519Z,98273.53
2023-04-02T07:59:24.103Z,98262.75
2023-04-02T08:01:53.659Z,98278.81
2023-04-02T08:04:23.393Z,98281.59
2023-04-02T08:06:52.966Z,98277.81
2023-04-02T08:09:20.392Z,98288.72
2023-04-02T08:11:47.838Z,98286.72
2023-04-02T08:14:15.644Z,98285.59
2023-04-02T08:16:53.745Z,98283.22
2023-04-02T08:19:22.152Z,98286.97
2023-04-02T08:21:52.082Z,98284.72
2023-04-02T08:24:21.131Z,98287.13
2023-04-02T08:26:51.569Z,98293.94
2023-04-02T08:29:19.287Z,98295.53
2023-04-02T08:31:46.736Z,98302.22
2023-04-02T08:34:14.382Z,98290.44
2023-04-02T08:36:45.668Z,98296.59
2023-04-02T08:39:13.581Z,98297.91
2023-04-02T08:42:44.922Z,98299.56
2023-04-02T08:45:58.187Z,98296.47
2023-04-02T08:48:25.732Z,98310.66
2023-04-02T08:50:53.757Z,98306.06
2023-04-02T08:53:32.360Z,98307.03
2023-04-02T08:56:24.141Z,98316.13
2023-04-02T08:58:57.788Z,98309.13
2023-04-02T09:02:07.024Z,98308.06
2023-04-02T09:04:37.067Z,98315.25
2023-04-02T09:07:04.714Z,98318.59
2023-04-02T09:09:39.276Z,98320.41
2023-04-02T09:12:29.460Z,98323.69
2023-04-02T09:15:34.317Z,98322.69
2023-04-02T09:18:19.946Z,98321.16
2023-04-02T09:20:49.475Z,98332.31
2023-04-02T09:23:24.171Z,98332.97
2023-04-02T09:26:04.268Z,98323.78
2023-04-02T09:28:32.414Z,98326.31
2023-04-02T09:31:37.870Z,98327.91
2023-04-02T09:34:34.873Z,98336.50
2023-04-02T09:37:25.698Z,98337.94
2023-04-02T09:40:09.899Z,98333.56
2023-04-02T09:42:38.288Z,98334.75
2023-04-02T09:45:35.672Z,98338.75
2023-04-02T09:48:14.932Z,98353.78
2023-04-02T09:50:42.305Z,98349.22
2023-04-02T09:53:33.850Z,98339.78
2023-04-02T09:56:24.429Z,98341.28
2023-04-02T09:59:16.195Z,98350.28
2023-04-02T10:01:57.120Z,98349.44
2023-04-02T10:04:49.881Z,98356.75
2023-04-02T10:07:45.128Z,98346.97
2023-04-02T10:10:46.844Z,98357.50
2023-04-02T10:14:02.114Z,98356.38
2023-04-02T10:17:11.822Z,98357.28
2023-04-02T10:19:47.412Z,98364.34
2023-04-02T10:22:22.487Z,98366.31
2023-04-02T10:24:51.371Z,98361.38
2023-04-02T10:28:34.598Z,98362.66
2023-04-02T10:31:48.188Z,98361.78
2023-04-02T10:34:54.392Z,98370.56
2023-04-02T10:37:45.906Z,98371.28
2023-04-02T10:40:47.985Z,98362.59
2023-04-02T10:44:20.474Z,98370.97
2023-04-02T10:47:32.317Z,98381.88
2023-04-02T10:50:15.789Z,98374.31
2023-04-02T10:53:45.729Z,98379.47
2023-04-02T10:56:14.644Z,98381.41
2023-04-02T10:59:26.233Z,98383.84
2023-04-02T11:01:58.817Z,98388.44
2023-04-02T11:04:42.423Z,98389.00
2023-04-02T11:07:22.684Z,98396.72
2023-04-02T11:09:56.474Z,98395.59
2023-04-02T11:12:49.671Z,98399.84
2023-04-02T11:15:20.498Z,98408.53
2023-04-02T11:17:48.637Z,98404.28
2023-04-02T11:21:03.361Z,98409.75
2023-04-02T11:24:01.346Z,98404.56
2023-04-02T11:26:47.558Z,98407.44
2023-04-02T11:29:29.160Z,98408.06
2023-04-02T11:32:25.582Z,98413.66
2023-04-02T11:35:06.632Z,98414.69
2023-04-02T11:37:45.734Z,98420.28
2023-04-02T11:40:16.043Z,98428.94
2023-04-02T11:42:50.523Z,98427.59
2023-04-02T11:45:52.852Z,98434.50
2023-04-02T11:48:20.682Z,98426.59
2023-04-02T11:50:48.203Z,98424.97
2023-04-02T11:53:15.734Z,98429.59
2023-04-02T11:56:06.563Z,98435.41
2023-04-02T11:59:30.116Z,98435.25
2023-04-02T12:02:28.763Z,98434.31
2023-04-02T12:05:54.813Z,98446.66
2023-04-02T12:09:23.765Z,98436.84
2023-04-02T12:12:00.040Z,98444.88
2023-04-02T12:14:51.947Z,98436.97
2023-04-02T12:17:36.052Z,98442.41
2023-04-02T12:20:09.928Z,98443.63
2023-04-02T12:22:53.527Z,98439.72
2023-04-02T12:25:40.492Z,98442.78
2023-04-02T12:28:11.191Z,98436.78
2023-04-02T12:30:40.529Z,98445.38
2023-04-02T12:33:23.199Z,98439.19
2023-04-02T12:36:02.115Z,98446.44
2023-04-02T12:38:48.323Z,98439.81
2023-04-02T12:41:33.554Z,98451.94
2023-04-02T12:44:15.616Z,98451.81
2023-04-02T12:46:45.510Z,98453.59
2023-04-02T12:49:45.079Z,98455.16
2023-04-02T12:52:20.774Z,98456.72
2023-04-02T12:55:03.807Z,98455.53
2023-04-02T12:57:34.160Z,98445.66
2023-04-02T13:00:21.377Z,98459.34
2023-04-02T13:03:05.982Z,98451.53
2023-04-02T13:05:56.522Z,98461.00
2023-04-02T13:08:33.198Z,98461.31
2023-04-02T13:11:05.030Z,98452.75
2023-04-02T13:13:43.694Z,98457.88
2023-04-02T13:16:20.118Z,98463.38
2023-04-02T13:18:50.949Z,98465.56
2023-04-02T13:21:21.315Z,98460.34
2023-04-02T13:23:48.759Z,98457.03
2023-04-02T13:26:28.389Z,98454.75
2023-04-02T13:29:36.682Z,98454.66
2023-04-02T13:32:13.555Z,98462.78
2023-04-02T13:34:41.025Z,98457.03
2023-04-02T13:37:13.415Z,98453.28
2023-04-02T13:39:40.929Z,98466.84
2023-04-02T13:42:11.784Z,98458.88
2023-04-02T13:44:39.296Z,98460.25
2023-04-02T13:47:07.531Z,98457.28
2023-04-02T13:49:35.119Z,98457.16
2023-04-02T13:52:05.178Z,98461.63
2023-04-02T13:54:51.144Z,98461.81
2023-04-02T13:57:19.129Z,98471.69
2023-04-02T13:59:46.832Z,98478.75
2023-04-02T14:02:23.806Z,98473.28
2023-04-02T14:05:37.160Z,98475.22
2023-04-02T14:08:48.582Z,98467.88
2023-04-02T14:11:59.348Z,98479.50
2023-04-02T14:15:13.511Z,98479.78
2023-04-02T14:18:33.023Z,98488.97
2023-04-02T14:22:09.563Z,98488.25
2023-04-02T14:25:24.233Z,98493.56
2023-04-02T14:28:15.908Z,98500.38
2023-04-02T14:31:12.974Z,98498.69
2023-04-02T14:34:34.516Z,98508.56
2023-04-02T14:37:28.225Z,98507.84
2023-04-02T14:41:04.480Z,98506.50
2023-04-02T14:43:52.352Z,98501.63
2023-04-02T14:46:24.767Z,98510.75
2023-04-02T14:49:09.216Z,98514.94
2023-04-02T14:52:14.200Z,98504.66
2023-04-02T14:55:04.357Z,98504.13
2023-04-02T14:57:49.159Z,98515.91
2023-04-02T15:00:45.842Z,98508.56
2023-04-02T15:03:24.451Z,98508.59
2023-04-02T15:06:09.584Z,98511.75
2023-04-02T15:09:15.037Z,98513.66
2023-04-02T15:11:57.219Z,98506.72
2023-04-02T15:14:51.163Z,98505.59
2023-04-02T15:17:21.448Z,98508.38
2023-04-02T15:19:49.732Z,98507.94
2023-04-02T15:22:51.376Z,98511.53
2023-04-02T15:25:55.528Z,98519.78
2023-04-02T15:28:40.965Z,98510.94
2023-04-02T15:31:15.013Z,98516.41
2023-04-02T15:33:46.089Z,98503.59
2023-04-02T15:36:47.904Z,98508.22
2023-04-02T15:40:02.958Z,98516.78
2023-04-02T15:42:42.193Z,98516.59
2023-04-02T15:45:12.257Z,98518.34
2023-04-02T15:48:42.964Z,98514.56
2023-04-02T15:51:26.505Z,98520.84
2023-04-02T15:54:31.471Z,98522.28
2023-04-02T15:58:08.656Z,98532.50
2023-04-02T16:01:01.091Z,98524.19
2023-04-02T16:04:19.657Z,98532.22
2023-04-02T16:07:23.406Z,98530.44
2023-04-02T16:10:41.121Z,98538.22
2023-04-02T16:13:39.230Z,98543.59
2023-04-02T16:16:42.500Z,98540.44
2023-04-02T16:19:51.944Z,98540.13
2023-04-02T16:22:30.208Z,98551.66
2023-04-02T16:25:19.361Z,98552.44
2023-04-02T16:28:39.159Z,98554.06
2023-04-02T16:31:26.232Z,98552.38
2023-04-02T16:34:47.275Z,98556.38
2023-04-02T16:38:07.850Z,98558.25
2023-04-02T16:41:37.774Z,98563.81
2023-04-02T16:45:03.081Z,98559.19
2023-04-02T16:47:47.117Z,98570.25
2023-04-02T16:50:45.796Z,98578.72
2023-04-02T16:54:09.168Z,98578.72
2023-04-02T16:57:06.932Z,98577.78
2023-04-02T17:00:13.897Z,98587.19
2023-04-02T17:03:58.174Z,98583.44
2023-04-02T17:07:30.545Z,98584.31
2023-04-02T17:10:30.396Z,98595.41
2023-04-02T17:13:46.216Z,98600.47
2023-04-02T17:16:33.107Z,98596.75
2023-04-02T17:19:02.712Z,98604.19
2023-04-02T17:21:32.490Z,98607.97
2023-04-02T17:24:28.492Z,98612.75
2023-04-02T17:27:32.996Z,98595.88
2023-04-02T17:30:45.010Z,98628.69
2023-04-02T17:33:18.239Z,98632.56
2023-04-02T17:36:32.960Z,98637.78
2023-04-02T17:39:53.654Z,98638.22
2023-04-02T17:42:58.512Z,98644.13
2023-04-02T17:45:57.383Z,98646.56
2023-04-02T17:48:47.293Z,98657.16
2023-04-02T17:51:48.948Z,98662.94
2023-04-02T17:54:51.808Z,98653.75
2023-04-02T17:58:05.664Z,98662.63
2023-04-02T18:01:07.134Z,98666.16
2023-04-02T18:04:16.912Z,98671.72
2023-04-02T18:07:12.279Z,98675.34
2023-04-02T18:09:54.416Z,98674.53
2023-04-02T18:13:36.665Z,98682.03
2023-04-02T18:17:21.269Z,98683.16
2023-04-02T18:20:09.121Z,98691.03
2023-04-02T18:23:09.052Z,98697.41
2023-04-02T18:26:19.296Z,98704.09
2023-04-02T18:29:41.757Z,98713.50
2023-04-02T18:33:07.077Z,98716.91
2023-04-02T18:36:02.598Z,98719.97
2023-04-02T18:39:06.482Z,98719.03
2023-04-02T18:42:13.510Z,98729.72
2023-04-02T18:45:21.042Z,98723.31
2023-04-02T18:48:41.129Z,98736.94
2023-04-02T18:51:31.989Z,98746.41
2023-04-02T18:54:56.416Z,98734.63
2023-04-02T18:57:34.243Z,98750.59
2023-04-02T19:00:29.240Z,98759.75
2023-04-02T19:03:52.604Z,98761.38
2023-04-02T19:06:35.057Z,98760.78
2023-04-02T19:09:20.741Z,98774.56
2023-04-02T19:11:49.059Z,98776.44
2023-04-02T19:14:23.308Z,98772.63
2023-04-02T19:17:44.221Z,98788.41
2023-04-02T19:20:11.509Z,98801.69
2023-04-02T19:23:42.750Z,98792.66
2023-04-02T19:26:19.431Z,98800.13
2023-04-02T19:29:04.309Z,98794.69
2023-04-02T19:31:47.129Z,98807.34
2023-04-02T19:35:03.093Z,98804.59
2023-04-02T19:37:55.947Z,98809.16
2023-04-02T19:40:54.524Z,98815.06
2023-04-02T19:43:22.054Z,98816.41
2023-04-02T19:45:50.350Z,98815.59
2023-04-02T19:48:34.824Z,98825.72
2023-04-02T19:51:02.405Z,98828.16
2023-04-02T19:53:29.924Z,98830.59
2023-04-02T19:55:57.672Z,98831.50
2023-04-02T19:58:36.407Z,98828.94
2023-04-02T20:01:04.354Z,98838.00
2023-04-02T20:03:32.599Z,98844.72
2023-04-02T20:06:00.247Z,98844.84
2023-04-02T20:08:28.733Z,98843.53
2023-04-02T20:10:58.669Z,98846.34
2023-04-02T20:13:26.282Z,98844.38
2023-04-02T20:15:54.078Z,98858.66
2023-04-02T20:18:21.692Z,98862.94
2023-04-02T20:20:49.768Z,98857.59
2023-04-02T20:23:18.017Z,98866.06
2023-04-02T20:25:57.174Z,98862.84
2023-04-02T20:28:27.750Z,98866.19
2023-04-02T20:31:05.804Z,98879.16
2023-04-02T20:33:33.535Z,98877.53
2023-04-02T20:36:15.905Z,98878.34
2023-04-02T20:38:45.934Z,98878.25
2023-04-02T20:41:16.181Z,98878.50
2023-04-02T20:43:43.916Z,98883.84
2023-04-02T20:46:12.952Z,98887.94
2023-04-02T20:48:41.423Z,98893.97
2023-04-02T20:51:14.193Z,98893.81
2023-04-02T20:53:42.266Z,98894.06
2023-04-02T20:56:17.024Z,98890.88
2023-04-02T20:58:44.904Z,98901.72
2023-04-02T21:01:27.493Z,98900.84
2023-04-02T21:04:04.788Z,98895.31
2023-04-02T21:06:38.068Z,98904.25
2023-04-02T21:09:14.830Z,98908.59
2023-04-02T21:11:42.984Z,98915.06
2023-04-02T21:14:11.587Z,98898.28
2023-04-02T21:16:41.835Z,98917.69
2023-04-02T21:19:10.864Z,98916.81
2023-04-02T21:21:39.679Z,98927.28
2023-04-02T21:24:09.649Z,98927.59
2023-04-02T21:26:41.624Z,98927.75
2023-04-02T21:29:11.816Z,98931.06
2023-04-02T21:31:42.057Z,98932.75
2023-04-02T21:34:15.808Z,98925.75
2023-04-02T21:36:50.503Z,98932.53
2023-04-02T21:39:24.293Z,98932.81
2023-04-02T21:41:53.627Z,98921.38
2023-04-02T21:44:24.438Z,98937.66
2023-04-02T21:46:54.114Z,98936.09
2023-04-02T21:49:23.328Z,98928.97
2023-04-02T21:51:51.987Z,98938.16
2023-04-02T21:54:20.220Z,98936.00
2023-04-02T21:56:48.923Z,98950.69
